sensor_id;sensor_type;location;lat;lon;timestamp;temperature;humidity
13091;DHT22;6611;52.604;13.438;2023-02-28T00:04:01;0.79;78.56
13091;DHT22;6611;52.604;13.438;2023-02-28T00:09:04;0.70;78.67
13091;DHT22;6611;52.604;13.438;2023-02-28T00:14:06;0.62;79.09
13091;DHT22;6611;52.604;13.438;2023-02-28T00:19:08;0.55;79.57
13091;DHT22;6611;52.604;13.438;2023-02-28T00:24:11;0.44;79.96
13091;DHT22;6611;52.604;13.438;2023-02-28T00:29:13;0.37;80.41
13091;DHT22;6611;52.604;13.438;2023-02-28T00:34:15;0.30;80.50
13091;DHT22;6611;52.604;13.438;2023-02-28T00:39:18;0.28;81.14
13091;DHT22;6611;52.604;13.438;2023-02-28T00:44:20;0.30;80.50
13091;DHT22;6611;52.604;13.438;2023-02-28T00:49:22;0.27;80.73
13091;DHT22;6611;52.604;13.438;2023-02-28T00:54:25;0.33;80.63
13091;DHT22;6611;52.604;13.438;2023-02-28T00:59:27;0.37;81.10
13091;DHT22;6611;52.604;13.438;2023-02-28T01:04:30;0.45;80.67
13091;DHT22;6611;52.604;13.438;2023-02-28T01:09:33;0.45;80.49
13091;DHT22;6611;52.604;13.438;2023-02-28T01:14:35;0.38;80.27
13091;DHT22;6611;52.604;13.438;2023-02-28T01:19:36;0.30;80.74
13091;DHT22;6611;52.604;13.438;2023-02-28T01:24:39;0.23;80.42
13091;DHT22;6611;52.604;13.438;2023-02-28T01:29:41;0.07;81.06
13091;DHT22;6611;52.604;13.438;2023-02-28T01:34:43;0.05;81.49
13091;DHT22;6611;52.604;13.438;2023-02-28T01:39:46;-0.04;81.59
13091;DHT22;6611;52.604;13.438;2023-02-28T01:45:03;-0.04;81.15
13091;DHT22;6611;52.604;13.438;2023-02-28T01:50:07;-0.11;81.37
13091;DHT22;6611;52.604;13.438;2023-02-28T01:55:13;-0.15;81.46
13091;DHT22;6611;52.604;13.438;2023-02-28T02:00:17;-0.22;82.03
13091;DHT22;6611;52.604;13.438;2023-02-28T02:05:21;-0.26;81.86
13091;DHT22;6611;52.604;13.438;2023-02-28T02:10:30;-0.23;82.24
13091;DHT22;6611;52.604;13.438;2023-02-28T02:15:36;-0.32;81.92
13091;DHT22;6611;52.604;13.438;2023-02-28T02:20:56;-0.36;82.44
13091;DHT22;6611;52.604;13.438;2023-02-28T02:26:15;-0.42;82.40
13091;DHT22;6611;52.604;13.438;2023-02-28T02:31:51;-0.50;82.38
13091;DHT22;6611;52.604;13.438;2023-02-28T02:37:07;-0.55;82.34
13091;DHT22;6611;52.604;13.438;2023-02-28T02:42:14;-0.59;81.64
13091;DHT22;6611;52.604;13.438;2023-02-28T02:47:19;-0.66;81.78
13091;DHT22;6611;52.604;13.438;2023-02-28T02:52:27;-0.72;82.24
13091;DHT22;6611;52.604;13.438;2023-02-28T02:57:34;-0.80;82.32
13091;DHT22;6611;52.604;13.438;2023-02-28T03:02:39;-0.85;82.25
13091;DHT22;6611;52.604;13.438;2023-02-28T03:07:43;-0.90;82.08
13091;DHT22;6611;52.604;13.438;2023-02-28T03:12:52;-0.98;82.65
13091;DHT22;6611;52.604;13.438;2023-02-28T03:18:04;-1.05;82.46
13091;DHT22;6611;52.604;13.438;2023-02-28T03:23:17;-1.05;82.52
13091;DHT22;6611;52.604;13.438;2023-02-28T03:28:27;-1.08;82.89
13091;DHT22;6611;52.604;13.438;2023-02-28T03:33:34;-1.12;82.12
13091;DHT22;6611;52.604;13.438;2023-02-28T03:38:41;-1.19;82.42
13091;DHT22;6611;52.604;13.438;2023-02-28T03:43:49;-1.26;82.42
13091;DHT22;6611;52.604;13.438;2023-02-28T03:48:57;-1.35;82.40
13091;DHT22;6611;52.604;13.438;2023-02-28T03:54:05;-1.31;81.95
13091;DHT22;6611;52.604;13.438;2023-02-28T03:59:12;-1.38;82.63
13091;DHT22;6611;52.604;13.438;2023-02-28T04:04:16;-1.42;82.77
13091;DHT22;6611;52.604;13.438;2023-02-28T04:09:19;-1.36;82.58
13091;DHT22;6611;52.604;13.438;2023-02-28T04:14:21;-1.39;82.46
13091;DHT22;6611;52.604;13.438;2023-02-28T04:19:23;-1.47;82.32
13091;DHT22;6611;52.604;13.438;2023-02-28T04:24:27;-1.62;82.51
13091;DHT22;6611;52.604;13.438;2023-02-28T04:29:30;-1.62;82.49
13091;DHT22;6611;52.604;13.438;2023-02-28T04:34:33;-1.70;82.53
13091;DHT22;6611;52.604;13.438;2023-02-28T04:39:36;-1.75;82.30
13091;DHT22;6611;52.604;13.438;2023-02-28T04:44:38;-1.77;82.41
13091;DHT22;6611;52.604;13.438;2023-02-28T04:49:40;-1.71;82.35
13091;DHT22;6611;52.604;13.438;2023-02-28T04:54:44;-1.82;82.05
13091;DHT22;6611;52.604;13.438;2023-02-28T04:59:46;-1.89;81.48
13091;DHT22;6611;52.604;13.438;2023-02-28T05:04:47;-1.99;82.02
13091;DHT22;6611;52.604;13.438;2023-02-28T05:09:50;-1.98;82.59
13091;DHT22;6611;52.604;13.438;2023-02-28T05:14:53;-2.05;82.31
13091;DHT22;6611;52.604;13.438;2023-02-28T05:19:55;-2.08;82.86
13091;DHT22;6611;52.604;13.438;2023-02-28T05:24:58;-2.09;82.65
13091;DHT22;6611;52.604;13.438;2023-02-28T05:29:59;-2.15;82.80
13091;DHT22;6611;52.604;13.438;2023-02-28T05:35:04;-2.23;82.20
13091;DHT22;6611;52.604;13.438;2023-02-28T05:40:09;-2.18;82.13
13091;DHT22;6611;52.604;13.438;2023-02-28T05:45:11;-2.23;82.71
13091;DHT22;6611;52.604;13.438;2023-02-28T05:50:13;-2.25;82.24
13091;DHT22;6611;52.604;13.438;2023-02-28T05:55:16;-2.23;82.61
13091;DHT22;6611;52.604;13.438;2023-02-28T06:00:19;-2.28;82.91
13091;DHT22;6611;52.604;13.438;2023-02-28T06:05:21;-2.29;82.91
13091;DHT22;6611;52.604;13.438;2023-02-28T06:10:24;-2.32;82.36
13091;DHT22;6611;52.604;13.438;2023-02-28T06:15:25;-2.34;82.40
13091;DHT22;6611;52.604;13.438;2023-02-28T06:20:27;-2.28;82.08
13091;DHT22;6611;52.604;13.438;2023-02-28T06:25:31;-2.26;82.15
13091;DHT22;6611;52.604;13.438;2023-02-28T06:30:32;-2.22;82.21
13091;DHT22;6611;52.604;13.438;2023-02-28T06:35:35;-2.13;82.35
13091;DHT22;6611;52.604;13.438;2023-02-28T06:40:38;-2.08;82.53
13091;DHT22;6611;52.604;13.438;2023-02-28T06:45:42;-1.95;82.40
13091;DHT22;6611;52.604;13.438;2023-02-28T06:50:43;-1.81;82.48
13091;DHT22;6611;52.604;13.438;2023-02-28T06:55:46;-1.46;81.10
13091;DHT22;6611;52.604;13.438;2023-02-28T07:00:51;-1.19;80.57
13091;DHT22;6611;52.604;13.438;2023-02-28T07:05:53;-1.07;80.37
13091;DHT22;6611;52.604;13.438;2023-02-28T07:10:58;-0.77;79.71
13091;DHT22;6611;52.604;13.438;2023-02-28T07:16:01;-0.59;79.52
13091;DHT22;6611;52.604;13.438;2023-02-28T07:21:03;-0.29;78.67
13091;DHT22;6611;52.604;13.438;2023-02-28T07:26:08;-0.15;78.68
13091;DHT22;6611;52.604;13.438;2023-02-28T07:31:13;0.18;78.06
13091;DHT22;6611;52.604;13.438;2023-02-28T07:36:16;0.41;77.71
13091;DHT22;6611;52.604;13.438;2023-02-28T07:41:22;0.95;76.90
13091;DHT22;6611;52.604;13.438;2023-02-28T07:46:27;1.14;75.48
13091;DHT22;6611;52.604;13.438;2023-02-28T07:51:35;1.26;75.52
13091;DHT22;6611;52.604;13.438;2023-02-28T07:56:38;1.59;74.70
13091;DHT22;6611;52.604;13.438;2023-02-28T08:01:40;1.75;74.31
13091;DHT22;6611;52.604;13.438;2023-02-28T08:06:41;1.65;74.94
13091;DHT22;6611;52.604;13.438;2023-02-28T08:11:44;1.82;74.45
13091;DHT22;6611;52.604;13.438;2023-02-28T08:16:46;1.99;73.76
13091;DHT22;6611;52.604;13.438;2023-02-28T08:21:48;2.06;74.09
13091;DHT22;6611;52.604;13.438;2023-02-28T08:26:51;2.20;73.29
13091;DHT22;6611;52.604;13.438;2023-02-28T08:31:52;2.64;70.57
13091;DHT22;6611;52.604;13.438;2023-02-28T08:36:54;2.89;69.22
13091;DHT22;6611;52.604;13.438;2023-02-28T08:41:57;3.48;63.52
13091;DHT22;6611;52.604;13.438;2023-02-28T08:46:59;3.81;61.80
13091;DHT22;6611;52.604;13.438;2023-02-28T08:52:00;4.40;51.76
13091;DHT22;6611;52.604;13.438;2023-02-28T08:57:03;4.64;49.04
13091;DHT22;6611;52.604;13.438;2023-02-28T09:02:05;4.80;49.62
13091;DHT22;6611;52.604;13.438;2023-02-28T09:07:07;5.18;47.55
13091;DHT22;6611;52.604;13.438;2023-02-28T09:12:10;5.23;50.33
13091;DHT22;6611;52.604;13.438;2023-02-28T09:17:12;5.08;46.46
13091;DHT22;6611;52.604;13.438;2023-02-28T09:22:13;5.39;46.99
13091;DHT22;6611;52.604;13.438;2023-02-28T09:27:18;5.61;42.82
13091;DHT22;6611;52.604;13.438;2023-02-28T09:32:19;5.57;44.86
13091;DHT22;6611;52.604;13.438;2023-02-28T09:37:21;5.47;43.08
13091;DHT22;6611;52.604;13.438;2023-02-28T09:42:30;5.64;42.78
13091;DHT22;6611;52.604;13.438;2023-02-28T09:47:34;5.68;44.18
13091;DHT22;6611;52.604;13.438;2023-02-28T09:52:37;5.74;41.56
13091;DHT22;6611;52.604;13.438;2023-02-28T09:57:41;6.02;44.69
13091;DHT22;6611;52.604;13.438;2023-02-28T10:02:58;6.01;44.59
13091;DHT22;6611;52.604;13.438;2023-02-28T10:08:09;6.09;42.24
13091;DHT22;6611;52.604;13.438;2023-02-28T10:13:20;6.01;44.20
13091;DHT22;6611;52.604;13.438;2023-02-28T10:18:27;6.02;45.06
13091;DHT22;6611;52.604;13.438;2023-02-28T10:23:34;5.95;44.88
13091;DHT22;6611;52.604;13.438;2023-02-28T10:28:38;5.92;45.44
13091;DHT22;6611;52.604;13.438;2023-02-28T10:33:40;5.85;45.36
13091;DHT22;6611;52.604;13.438;2023-02-28T10:38:42;5.81;45.42
13091;DHT22;6611;52.604;13.438;2023-02-28T10:43:46;5.85;44.11
13091;DHT22;6611;52.604;13.438;2023-02-28T10:48:57;6.06;45.33
13091;DHT22;6611;52.604;13.438;2023-02-28T10:54:00;6.16;45.96
13091;DHT22;6611;52.604;13.438;2023-02-28T10:59:26;6.26;44.81
13091;DHT22;6611;52.604;13.438;2023-02-28T11:04:34;6.22;42.85
13091;DHT22;6611;52.604;13.438;2023-02-28T11:09:39;6.65;45.05
13091;DHT22;6611;52.604;13.438;2023-02-28T11:14:49;7.15;41.04
13091;DHT22;6611;52.604;13.438;2023-02-28T11:19:53;7.55;39.22
13091;DHT22;6611;52.604;13.438;2023-02-28T11:25:00;8.29;41.05
13091;DHT22;6611;52.604;13.438;2023-02-28T11:30:04;8.21;38.93
13091;DHT22;6611;52.604;13.438;2023-02-28T11:35:27;8.16;39.78
13091;DHT22;6611;52.604;13.438;2023-02-28T11:40:36;8.55;38.40
13091;DHT22;6611;52.604;13.438;2023-02-28T11:45:48;8.93;37.82
13091;DHT22;6611;52.604;13.438;2023-02-28T11:51:03;8.79;37.57
13091;DHT22;6611;52.604;13.438;2023-02-28T11:56:11;9.21;38.61
13091;DHT22;6611;52.604;13.438;2023-02-28T12:01:33;8.65;37.62
13091;DHT22;6611;52.604;13.438;2023-02-28T12:06:45;8.44;39.88
13091;DHT22;6611;52.604;13.438;2023-02-28T12:11:53;8.23;38.33
13091;DHT22;6611;52.604;13.438;2023-02-28T12:17:04;8.80;38.93
13091;DHT22;6611;52.604;13.438;2023-02-28T12:22:26;9.20;38.69
13091;DHT22;6611;52.604;13.438;2023-02-28T12:27:32;8.79;37.86
13091;DHT22;6611;52.604;13.438;2023-02-28T12:32:38;8.30;38.19
13091;DHT22;6611;52.604;13.438;2023-02-28T12:37:45;7.97;42.52
13091;DHT22;6611;52.604;13.438;2023-02-28T12:42:50;8.87;38.86
13091;DHT22;6611;52.604;13.438;2023-02-28T12:47:57;9.16;36.58
13091;DHT22;6611;52.604;13.438;2023-02-28T12:53:04;8.49;39.99
13091;DHT22;6611;52.604;13.438;2023-02-28T12:58:13;8.61;39.22
13091;DHT22;6611;52.604;13.438;2023-02-28T13:09:04;7.87;40.00
13091;DHT22;6611;52.604;13.438;2023-02-28T13:14:23;7.58;41.71
13091;DHT22;6611;52.604;13.438;2023-02-28T13:19:27;7.38;42.76
13091;DHT22;6611;52.604;13.438;2023-02-28T13:24:43;7.59;42.71
13091;DHT22;6611;52.604;13.438;2023-02-28T13:29:46;7.99;41.22
13091;DHT22;6611;52.604;13.438;2023-02-28T13:35:13;8.13;39.55
13091;DHT22;6611;52.604;13.438;2023-02-28T13:40:31;7.87;40.08
13091;DHT22;6611;52.604;13.438;2023-02-28T13:45:37;7.95;40.45
13091;DHT22;6611;52.604;13.438;2023-02-28T13:50:40;7.62;41.06
13091;DHT22;6611;52.604;13.438;2023-02-28T13:55:46;7.52;41.81
13091;DHT22;6611;52.604;13.438;2023-02-28T14:01:07;7.67;42.30
13091;DHT22;6611;52.604;13.438;2023-02-28T14:06:21;7.07;43.53
13091;DHT22;6611;52.604;13.438;2023-02-28T14:11:29;7.07;41.88
13091;DHT22;6611;52.604;13.438;2023-02-28T14:16:40;7.37;43.98
13091;DHT22;6611;52.604;13.438;2023-02-28T14:21:58;7.05;42.53
13091;DHT22;6611;52.604;13.438;2023-02-28T14:27:34;7.19;41.97
13091;DHT22;6611;52.604;13.438;2023-02-28T14:32:45;7.22;43.05
13091;DHT22;6611;52.604;13.438;2023-02-28T14:37:49;6.92;43.06
13091;DHT22;6611;52.604;13.438;2023-02-28T14:42:57;6.70;42.98
13091;DHT22;6611;52.604;13.438;2023-02-28T14:48:01;6.37;44.47
13091;DHT22;6611;52.604;13.438;2023-02-28T14:53:06;6.23;44.18
13091;DHT22;6611;52.604;13.438;2023-02-28T14:58:22;6.25;44.38
13091;DHT22;6611;52.604;13.438;2023-02-28T15:03:30;5.98;45.84
13091;DHT22;6611;52.604;13.438;2023-02-28T15:08:33;5.95;46.53
13091;DHT22;6611;52.604;13.438;2023-02-28T15:13:39;5.90;48.64
13091;DHT22;6611;52.604;13.438;2023-02-28T15:18:46;5.75;47.05
13091;DHT22;6611;52.604;13.438;2023-02-28T15:23:51;5.71;49.77
13091;DHT22;6611;52.604;13.438;2023-02-28T15:28:59;5.54;48.79
13091;DHT22;6611;52.604;13.438;2023-02-28T15:34:03;5.50;47.01
13091;DHT22;6611;52.604;13.438;2023-02-28T15:39:19;5.44;47.16
13091;DHT22;6611;52.604;13.438;2023-02-28T15:44:27;5.40;48.32
13091;DHT22;6611;52.604;13.438;2023-02-28T15:49:38;5.25;48.92
13091;DHT22;6611;52.604;13.438;2023-02-28T15:54:40;5.16;48.85
13091;DHT22;6611;52.604;13.438;2023-02-28T15:59:50;5.19;49.46
13091;DHT22;6611;52.604;13.438;2023-02-28T16:04:58;5.16;49.85
13091;DHT22;6611;52.604;13.438;2023-02-28T16:10:00;5.16;49.29
13091;DHT22;6611;52.604;13.438;2023-02-28T16:15:08;4.94;49.11
13091;DHT22;6611;52.604;13.438;2023-02-28T16:20:13;4.91;51.03
13091;DHT22;6611;52.604;13.438;2023-02-28T16:25:16;4.88;49.57
13091;DHT22;6611;52.604;13.438;2023-02-28T16:30:22;4.64;53.19
13091;DHT22;6611;52.604;13.438;2023-02-28T16:35:24;4.36;54.98
13091;DHT22;6611;52.604;13.438;2023-02-28T16:40:26;4.02;56.66
13091;DHT22;6611;52.604;13.438;2023-02-28T16:45:30;3.69;57.88
13091;DHT22;6611;52.604;13.438;2023-02-28T16:50:35;3.55;58.15
13091;DHT22;6611;52.604;13.438;2023-02-28T16:55:36;3.38;58.14
13091;DHT22;6611;52.604;13.438;2023-02-28T17:00:40;2.96;59.86
13091;DHT22;6611;52.604;13.438;2023-02-28T17:05:41;2.79;61.09
13091;DHT22;6611;52.604;13.438;2023-02-28T17:10:44;2.52;62.40
13091;DHT22;6611;52.604;13.438;2023-02-28T17:15:47;2.31;63.52
13091;DHT22;6611;52.604;13.438;2023-02-28T17:20:49;2.21;63.74
13091;DHT22;6611;52.604;13.438;2023-02-28T17:25:51;2.01;64.03
13091;DHT22;6611;52.604;13.438;2023-02-28T17:30:55;1.93;64.51
13091;DHT22;6611;52.604;13.438;2023-02-28T17:35:57;1.86;64.63
13091;DHT22;6611;52.604;13.438;2023-02-28T17:40:59;1.76;64.85
13091;DHT22;6611;52.604;13.438;2023-02-28T17:46:02;1.51;66.90
13091;DHT22;6611;52.604;13.438;2023-02-28T17:51:05;1.41;67.43
13091;DHT22;6611;52.604;13.438;2023-02-28T17:56:11;1.31;67.39
13091;DHT22;6611;52.604;13.438;2023-02-28T18:01:15;1.26;67.30
13091;DHT22;6611;52.604;13.438;2023-02-28T18:06:20;1.04;69.19
13091;DHT22;6611;52.604;13.438;2023-02-28T18:11:23;0.93;69.74
13091;DHT22;6611;52.604;13.438;2023-02-28T18:16:26;0.89;70.29
13091;DHT22;6611;52.604;13.438;2023-02-28T18:21:28;0.85;70.51
13091;DHT22;6611;52.604;13.438;2023-02-28T18:26:30;0.69;71.33
13091;DHT22;6611;52.604;13.438;2023-02-28T18:31:33;0.61;71.96
13091;DHT22;6611;52.604;13.438;2023-02-28T18:36:35;0.65;71.65
13091;DHT22;6611;52.604;13.438;2023-02-28T18:41:36;0.58;71.39
13091;DHT22;6611;52.604;13.438;2023-02-28T18:46:39;0.52;71.86
13091;DHT22;6611;52.604;13.438;2023-02-28T18:51:41;0.54;71.56
13091;DHT22;6611;52.604;13.438;2023-02-28T18:56:44;0.57;71.06
13091;DHT22;6611;52.604;13.438;2023-02-28T19:01:47;0.41;71.98
13091;DHT22;6611;52.604;13.438;2023-02-28T19:06:49;0.28;72.79
13091;DHT22;6611;52.604;13.438;2023-02-28T19:11:51;0.33;72.37
13091;DHT22;6611;52.604;13.438;2023-02-28T19:16:54;0.21;72.82
13091;DHT22;6611;52.604;13.438;2023-02-28T19:21:55;0.21;72.95
13091;DHT22;6611;52.604;13.438;2023-02-28T19:26:57;0.18;73.73
13091;DHT22;6611;52.604;13.438;2023-02-28T19:32:00;0.14;73.46
13091;DHT22;6611;52.604;13.438;2023-02-28T19:37:03;0.13;73.08
13091;DHT22;6611;52.604;13.438;2023-02-28T19:42:05;0.14;72.97
13091;DHT22;6611;52.604;13.438;2023-02-28T19:47:08;0.06;73.40
13091;DHT22;6611;52.604;13.438;2023-02-28T19:52:10;0.03;73.08
13091;DHT22;6611;52.604;13.438;2023-02-28T19:57:12;-0.04;73.39
13091;DHT22;6611;52.604;13.438;2023-02-28T20:02:17;-0.07;73.48
13091;DHT22;6611;52.604;13.438;2023-02-28T20:07:19;-0.11;74.06
13091;DHT22;6611;52.604;13.438;2023-02-28T20:12:21;-0.12;74.12
13091;DHT22;6611;52.604;13.438;2023-02-28T20:17:25;-0.25;74.36
13091;DHT22;6611;52.604;13.438;2023-02-28T20:22:26;-0.28;75.06
13091;DHT22;6611;52.604;13.438;2023-02-28T20:27:28;-0.31;74.41
13091;DHT22;6611;52.604;13.438;2023-02-28T20:32:33;-0.36;74.92
13091;DHT22;6611;52.604;13.438;2023-02-28T20:37:38;-0.55;75.11
13091;DHT22;6611;52.604;13.438;2023-02-28T20:42:39;-0.49;74.77
13091;DHT22;6611;52.604;13.438;2023-02-28T20:47:43;-0.50;75.24
13091;DHT22;6611;52.604;13.438;2023-02-28T20:52:44;-0.55;75.31
13091;DHT22;6611;52.604;13.438;2023-02-28T20:57:46;-0.60;75.30
13091;DHT22;6611;52.604;13.438;2023-02-28T21:02:50;-0.62;76.08
13091;DHT22;6611;52.604;13.438;2023-02-28T21:07:52;-0.76;75.90
13091;DHT22;6611;52.604;13.438;2023-02-28T21:12:53;-0.77;76.52
13091;DHT22;6611;52.604;13.438;2023-02-28T21:17:58;-0.81;76.23
13091;DHT22;6611;52.604;13.438;2023-02-28T21:23:00;-0.85;77.00
13091;DHT22;6611;52.604;13.438;2023-02-28T21:28:01;-0.85;76.53
13091;DHT22;6611;52.604;13.438;2023-02-28T21:33:04;-1.00;76.69
13091;DHT22;6611;52.604;13.438;2023-02-28T21:38:06;-1.04;77.15
13091;DHT22;6611;52.604;13.438;2023-02-28T21:43:08;-1.02;77.12
13091;DHT22;6611;52.604;13.438;2023-02-28T21:48:11;-1.11;76.72
13091;DHT22;6611;52.604;13.438;2023-02-28T21:53:13;-1.18;77.00
13091;DHT22;6611;52.604;13.438;2023-02-28T21:58:14;-1.19;76.71
13091;DHT22;6611;52.604;13.438;2023-02-28T22:03:18;-1.22;76.99
13091;DHT22;6611;52.604;13.438;2023-02-28T22:08:19;-1.13;76.20
13091;DHT22;6611;52.604;13.438;2023-02-28T22:13:21;-1.25;76.68
13091;DHT22;6611;52.604;13.438;2023-02-28T22:18:24;-1.32;77.71
13091;DHT22;6611;52.604;13.438;2023-02-28T22:23:26;-1.40;77.29
13091;DHT22;6611;52.604;13.438;2023-02-28T22:28:28;-1.38;77.16
13091;DHT22;6611;52.604;13.438;2023-02-28T22:33:31;-1.45;77.32
13091;DHT22;6611;52.604;13.438;2023-02-28T22:38:33;-1.50;77.74
13091;DHT22;6611;52.604;13.438;2023-02-28T22:43:39;-1.46;78.05
13091;DHT22;6611;52.604;13.438;2023-02-28T22:48:42;-1.59;77.24
13091;DHT22;6611;52.604;13.438;2023-02-28T22:53:45;-1.57;77.49
13091;DHT22;6611;52.604;13.438;2023-02-28T22:58:48;-1.60;78.03
13091;DHT22;6611;52.604;13.438;2023-02-28T23:03:52;-1.77;78.33
13091;DHT22;6611;52.604;13.438;2023-02-28T23:08:55;-1.77;78.64
13091;DHT22;6611;52.604;13.438;2023-02-28T23:13:58;-1.80;78.13
13091;DHT22;6611;52.604;13.438;2023-02-28T23:19:03;-1.85;78.72
13091;DHT22;6611;52.604;13.438;2023-02-28T23:24:08;-1.95;78.30
13091;DHT22;6611;52.604;13.438;2023-02-28T23:29:11;-2.09;78.31
13091;DHT22;6611;52.604;13.438;2023-02-28T23:34:15;-1.99;78.08
13091;DHT22;6611;52.604;13.438;2023-02-28T23:39:25;-2.15;78.25
13091;DHT22;6611;52.604;13.438;2023-02-28T23:44:28;-2.06;77.84
13091;DHT22;6611;52.604;13.438;2023-02-28T23:49:32;-2.08;78.56
13091;DHT22;6611;52.604;13.438;2023-02-28T23:54:34;-2.32;78.94
13091;DHT22;6611;52.604;13.438;2023-02-28T23:59:36;-2.33;78.88
